Loachapoka, Alabama
Current Conditions -  °F | °C
As of 3:55 AM on Friday 28 Nov 2014 (Local Time) from KAUO Reporting Station
Clear Clear  
Wind Chill: 24°   Ceiling: Unl
Heat Index: 30°   Visibility: 10mi
Dew Point: 23°   Wind: 6mph
Humidity: 75%   Direction: 340°NNW
Pressure: 30.4"   Gusts: NA
Location:  32.6°N, 85.59°W
Report Text: KAUO 280955Z AUTO 34005KT 10SM CLR M01/M05 A3040 RMK AO1
Loading
Personal Weather Stations






























Interactive Weather Map New forecast layout! Learn more

10-Day Weather Forecast

Advertisements
Track Severe Weather on mobile